sensor_id;sensor_type;location;lat;lon;timestamp;P1;durP1;ratioP1;P2;durP2;ratioP2
78889;SDS011;68279;48.964;14.502;2023-03-23T00:00:43;5.30;;;2.50;;
78889;SDS011;68279;48.964;14.502;2023-03-23T00:03:09;4.47;;;3.58;;
78889;SDS011;68279;48.964;14.502;2023-03-23T00:05:35;5.22;;;3.67;;
78889;SDS011;68279;48.964;14.502;2023-03-23T00:08:02;9.50;;;4.03;;
78889;SDS011;68279;48.964;14.502;2023-03-23T00:10:29;6.28;;;3.15;;
78889;SDS011;68279;48.964;14.502;2023-03-23T00:12:58;4.32;;;3.25;;
78889;SDS011;68279;48.964;14.502;2023-03-23T00:15:28;5.78;;;3.38;;
78889;SDS011;68279;48.964;14.502;2023-03-23T00:18:01;4.22;;;2.55;;
78889;SDS011;68279;48.964;14.502;2023-03-23T00:20:30;5.13;;;3.55;;
78889;SDS011;68279;48.964;14.502;2023-03-23T00:23:02;7.82;;;2.97;;
78889;SDS011;68279;48.964;14.502;2023-03-23T00:25:30;6.03;;;3.22;;
78889;SDS011;68279;48.964;14.502;2023-03-23T00:27:56;5.55;;;3.05;;
78889;SDS011;68279;48.964;14.502;2023-03-23T00:30:22;7.88;;;3.13;;
78889;SDS011;68279;48.964;14.502;2023-03-23T00:32:47;6.03;;;3.78;;
78889;SDS011;68279;48.964;14.502;2023-03-23T00:35:13;5.75;;;3.67;;
78889;SDS011;68279;48.964;14.502;2023-03-23T00:37:39;4.70;;;3.38;;
78889;SDS011;68279;48.964;14.502;2023-03-23T00:40:05;4.38;;;3.38;;
78889;SDS011;68279;48.964;14.502;2023-03-23T00:42:34;6.50;;;3.15;;
78889;SDS011;68279;48.964;14.502;2023-03-23T00:45:02;5.90;;;3.45;;
78889;SDS011;68279;48.964;14.502;2023-03-23T00:47:36;4.45;;;2.78;;
78889;SDS011;68279;48.964;14.502;2023-03-23T00:50:02;5.32;;;2.65;;
78889;SDS011;68279;48.964;14.502;2023-03-23T00:52:30;6.05;;;3.35;;
78889;SDS011;68279;48.964;14.502;2023-03-23T00:54:56;3.08;;;2.47;;
78889;SDS011;68279;48.964;14.502;2023-03-23T00:57:22;4.78;;;3.10;;
78889;SDS011;68279;48.964;14.502;2023-03-23T00:59:49;4.38;;;3.20;;
78889;SDS011;68279;48.964;14.502;2023-03-23T01:02:16;4.70;;;2.78;;
78889;SDS011;68279;48.964;14.502;2023-03-23T01:04:44;4.88;;;3.00;;
78889;SDS011;68279;48.964;14.502;2023-03-23T01:07:17;3.22;;;2.08;;
78889;SDS011;68279;48.964;14.502;2023-03-23T01:09:45;5.63;;;2.22;;
78889;SDS011;68279;48.964;14.502;2023-03-23T01:12:13;4.38;;;2.50;;
78889;SDS011;68279;48.964;14.502;2023-03-23T01:14:40;7.18;;;3.42;;
78889;SDS011;68279;48.964;14.502;2023-03-23T01:17:06;5.00;;;2.75;;
78889;SDS011;68279;48.964;14.502;2023-03-23T01:19:32;5.10;;;2.65;;
78889;SDS011;68279;48.964;14.502;2023-03-23T01:21:57;3.70;;;2.65;;
78889;SDS011;68279;48.964;14.502;2023-03-23T01:24:23;4.00;;;2.60;;
78889;SDS011;68279;48.964;14.502;2023-03-23T01:26:49;3.97;;;2.75;;
78889;SDS011;68279;48.964;14.502;2023-03-23T01:29:14;5.30;;;2.08;;
78889;SDS011;68279;48.964;14.502;2023-03-23T01:31:40;8.00;;;3.00;;
78889;SDS011;68279;48.964;14.502;2023-03-23T01:34:07;3.00;;;2.08;;
78889;SDS011;68279;48.964;14.502;2023-03-23T01:36:33;4.85;;;3.03;;
78889;SDS011;68279;48.964;14.502;2023-03-23T01:38:59;3.83;;;2.15;;
78889;SDS011;68279;48.964;14.502;2023-03-23T01:41:28;3.70;;;2.78;;
78889;SDS011;68279;48.964;14.502;2023-03-23T01:46:29;4.53;;;2.90;;
78889;SDS011;68279;48.964;14.502;2023-03-23T01:48:58;5.18;;;2.83;;
78889;SDS011;68279;48.964;14.502;2023-03-23T01:51:46;4.40;;;2.75;;
78889;SDS011;68279;48.964;14.502;2023-03-23T01:54:15;5.65;;;3.03;;
78889;SDS011;68279;48.964;14.502;2023-03-23T01:56:47;6.85;;;2.75;;
78889;SDS011;68279;48.964;14.502;2023-03-23T01:59:17;4.00;;;2.67;;
78889;SDS011;68279;48.964;14.502;2023-03-23T02:01:45;4.07;;;2.72;;
78889;SDS011;68279;48.964;14.502;2023-03-23T02:04:13;5.45;;;3.13;;
78889;SDS011;68279;48.964;14.502;2023-03-23T02:06:43;4.10;;;2.88;;
78889;SDS011;68279;48.964;14.502;2023-03-23T02:09:09;5.32;;;2.00;;
78889;SDS011;68279;48.964;14.502;2023-03-23T02:11:38;4.50;;;2.53;;
78889;SDS011;68279;48.964;14.502;2023-03-23T02:14:05;4.93;;;3.22;;
78889;SDS011;68279;48.964;14.502;2023-03-23T02:19:16;5.35;;;3.03;;
78889;SDS011;68279;48.964;14.502;2023-03-23T02:38:25;5.30;;;2.45;;
78889;SDS011;68279;48.964;14.502;2023-03-23T02:41:04;4.57;;;2.65;;
78889;SDS011;68279;48.964;14.502;2023-03-23T02:43:32;3.75;;;2.30;;
78889;SDS011;68279;48.964;14.502;2023-03-23T02:46:04;5.00;;;3.10;;
78889;SDS011;68279;48.964;14.502;2023-03-23T02:48:32;7.53;;;2.85;;
78889;SDS011;68279;48.964;14.502;2023-03-23T02:50:58;4.38;;;3.28;;
78889;SDS011;68279;48.964;14.502;2023-03-23T02:53:25;3.72;;;2.38;;
78889;SDS011;68279;48.964;14.502;2023-03-23T02:55:53;3.97;;;2.50;;
78889;SDS011;68279;48.964;14.502;2023-03-23T02:58:21;5.00;;;3.10;;
78889;SDS011;68279;48.964;14.502;2023-03-23T03:00:51;4.70;;;3.13;;
78889;SDS011;68279;48.964;14.502;2023-03-23T03:03:19;5.88;;;3.00;;
78889;SDS011;68279;48.964;14.502;2023-03-23T03:06:09;6.70;;;3.20;;
78889;SDS011;68279;48.964;14.502;2023-03-23T03:08:40;4.53;;;2.90;;
78889;SDS011;68279;48.964;14.502;2023-03-23T03:11:15;4.93;;;3.25;;
78889;SDS011;68279;48.964;14.502;2023-03-23T03:19:34;7.57;;;4.13;;
78889;SDS011;68279;48.964;14.502;2023-03-23T03:21:45;4.40;;;2.65;;
78889;SDS011;68279;48.964;14.502;2023-03-23T03:24:14;6.18;;;3.05;;
78889;SDS011;68279;48.964;14.502;2023-03-23T03:26:45;5.75;;;2.70;;
78889;SDS011;68279;48.964;14.502;2023-03-23T03:29:22;4.90;;;3.13;;
78889;SDS011;68279;48.964;14.502;2023-03-23T03:31:51;3.97;;;2.90;;
78889;SDS011;68279;48.964;14.502;2023-03-23T03:34:20;6.38;;;3.60;;
78889;SDS011;68279;48.964;14.502;2023-03-23T03:36:47;5.47;;;3.28;;
78889;SDS011;68279;48.964;14.502;2023-03-23T03:39:15;4.75;;;2.83;;
78889;SDS011;68279;48.964;14.502;2023-03-23T03:41:42;5.43;;;2.83;;
78889;SDS011;68279;48.964;14.502;2023-03-23T03:44:09;4.43;;;2.85;;
78889;SDS011;68279;48.964;14.502;2023-03-23T03:46:35;6.15;;;3.22;;
78889;SDS011;68279;48.964;14.502;2023-03-23T03:49:02;6.07;;;3.17;;
78889;SDS011;68279;48.964;14.502;2023-03-23T03:51:31;4.43;;;3.00;;
78889;SDS011;68279;48.964;14.502;2023-03-23T03:53:57;5.72;;;3.35;;
78889;SDS011;68279;48.964;14.502;2023-03-23T03:56:23;5.43;;;3.28;;
78889;SDS011;68279;48.964;14.502;2023-03-23T03:58:49;6.55;;;3.55;;
78889;SDS011;68279;48.964;14.502;2023-03-23T04:01:16;7.28;;;3.33;;
78889;SDS011;68279;48.964;14.502;2023-03-23T04:03:43;7.28;;;3.42;;
78889;SDS011;68279;48.964;14.502;2023-03-23T04:06:09;6.68;;;2.88;;
78889;SDS011;68279;48.964;14.502;2023-03-23T04:08:37;8.00;;;4.03;;
78889;SDS011;68279;48.964;14.502;2023-03-23T04:11:04;6.50;;;3.13;;
78889;SDS011;68279;48.964;14.502;2023-03-23T04:13:30;7.05;;;3.75;;
78889;SDS011;68279;48.964;14.502;2023-03-23T04:15:56;6.60;;;3.72;;
78889;SDS011;68279;48.964;14.502;2023-03-23T04:18:22;8.55;;;3.95;;
78889;SDS011;68279;48.964;14.502;2023-03-23T04:20:49;7.53;;;3.20;;
78889;SDS011;68279;48.964;14.502;2023-03-23T04:23:19;6.55;;;3.08;;
78889;SDS011;68279;48.964;14.502;2023-03-23T04:25:47;8.88;;;4.70;;
78889;SDS011;68279;48.964;14.502;2023-03-23T04:28:15;8.35;;;4.05;;
78889;SDS011;68279;48.964;14.502;2023-03-23T04:30:48;7.85;;;3.92;;
78889;SDS011;68279;48.964;14.502;2023-03-23T04:33:21;7.20;;;3.53;;
78889;SDS011;68279;48.964;14.502;2023-03-23T04:35:53;7.10;;;3.67;;
78889;SDS011;68279;48.964;14.502;2023-03-23T04:38:20;9.60;;;4.10;;
78889;SDS011;68279;48.964;14.502;2023-03-23T04:40:49;4.82;;;2.88;;
78889;SDS011;68279;48.964;14.502;2023-03-23T04:43:16;10.57;;;4.70;;
78889;SDS011;68279;48.964;14.502;2023-03-23T04:45:46;6.15;;;2.92;;
78889;SDS011;68279;48.964;14.502;2023-03-23T04:48:17;6.88;;;3.95;;
78889;SDS011;68279;48.964;14.502;2023-03-23T04:50:42;4.47;;;3.30;;
78889;SDS011;68279;48.964;14.502;2023-03-23T04:53:08;6.82;;;3.53;;
78889;SDS011;68279;48.964;14.502;2023-03-23T04:55:35;6.18;;;4.50;;
78889;SDS011;68279;48.964;14.502;2023-03-23T04:58:02;7.05;;;3.90;;
78889;SDS011;68279;48.964;14.502;2023-03-23T05:00:29;8.10;;;4.05;;
78889;SDS011;68279;48.964;14.502;2023-03-23T05:02:54;5.95;;;3.17;;
78889;SDS011;68279;48.964;14.502;2023-03-23T05:05:21;6.88;;;3.50;;
78889;SDS011;68279;48.964;14.502;2023-03-23T05:07:49;5.97;;;3.05;;
78889;SDS011;68279;48.964;14.502;2023-03-23T05:10:15;6.95;;;3.67;;
78889;SDS011;68279;48.964;14.502;2023-03-23T05:12:42;5.30;;;3.10;;
78889;SDS011;68279;48.964;14.502;2023-03-23T05:15:09;6.70;;;3.88;;
78889;SDS011;68279;48.964;14.502;2023-03-23T05:17:37;6.13;;;4.07;;
78889;SDS011;68279;48.964;14.502;2023-03-23T05:20:04;7.25;;;4.10;;
78889;SDS011;68279;48.964;14.502;2023-03-23T05:22:37;4.88;;;2.42;;
78889;SDS011;68279;48.964;14.502;2023-03-23T05:25:03;8.40;;;3.97;;
78889;SDS011;68279;48.964;14.502;2023-03-23T05:27:30;5.03;;;3.30;;
78889;SDS011;68279;48.964;14.502;2023-03-23T05:29:59;6.47;;;3.55;;
78889;SDS011;68279;48.964;14.502;2023-03-23T05:32:26;7.28;;;3.72;;
78889;SDS011;68279;48.964;14.502;2023-03-23T05:34:57;6.95;;;3.55;;
78889;SDS011;68279;48.964;14.502;2023-03-23T05:37:23;6.15;;;3.78;;
78889;SDS011;68279;48.964;14.502;2023-03-23T05:39:50;5.63;;;3.60;;
78889;SDS011;68279;48.964;14.502;2023-03-23T05:42:21;5.88;;;3.65;;
78889;SDS011;68279;48.964;14.502;2023-03-23T05:44:47;7.63;;;3.88;;
78889;SDS011;68279;48.964;14.502;2023-03-23T05:47:13;5.85;;;3.67;;
78889;SDS011;68279;48.964;14.502;2023-03-23T05:49:39;4.95;;;3.47;;
78889;SDS011;68279;48.964;14.502;2023-03-23T05:52:06;7.15;;;4.18;;
78889;SDS011;68279;48.964;14.502;2023-03-23T05:54:31;7.50;;;3.72;;
78889;SDS011;68279;48.964;14.502;2023-03-23T05:56:57;9.75;;;4.30;;
78889;SDS011;68279;48.964;14.502;2023-03-23T05:59:22;7.30;;;4.10;;
78889;SDS011;68279;48.964;14.502;2023-03-23T06:01:48;8.10;;;4.03;;
78889;SDS011;68279;48.964;14.502;2023-03-23T06:04:14;7.55;;;4.00;;
78889;SDS011;68279;48.964;14.502;2023-03-23T06:06:41;5.93;;;3.53;;
78889;SDS011;68279;48.964;14.502;2023-03-23T06:09:08;6.05;;;3.58;;
78889;SDS011;68279;48.964;14.502;2023-03-23T06:11:34;8.32;;;4.50;;
78889;SDS011;68279;48.964;14.502;2023-03-23T06:14:03;6.68;;;4.45;;
78889;SDS011;68279;48.964;14.502;2023-03-23T06:16:30;10.10;;;3.35;;
78889;SDS011;68279;48.964;14.502;2023-03-23T06:18:56;6.75;;;3.53;;
78889;SDS011;68279;48.964;14.502;2023-03-23T06:21:22;6.32;;;3.40;;
78889;SDS011;68279;48.964;14.502;2023-03-23T06:23:48;5.68;;;3.35;;
78889;SDS011;68279;48.964;14.502;2023-03-23T06:26:15;8.35;;;4.47;;
78889;SDS011;68279;48.964;14.502;2023-03-23T06:28:44;6.03;;;3.80;;
78889;SDS011;68279;48.964;14.502;2023-03-23T06:31:10;6.53;;;4.00;;
78889;SDS011;68279;48.964;14.502;2023-03-23T06:33:37;6.13;;;3.58;;
78889;SDS011;68279;48.964;14.502;2023-03-23T06:36:03;5.78;;;2.85;;
78889;SDS011;68279;48.964;14.502;2023-03-23T06:38:29;4.75;;;3.60;;
78889;SDS011;68279;48.964;14.502;2023-03-23T06:40:57;5.57;;;3.25;;
78889;SDS011;68279;48.964;14.502;2023-03-23T06:43:23;7.50;;;3.22;;
78889;SDS011;68279;48.964;14.502;2023-03-23T06:45:49;6.18;;;3.85;;
78889;SDS011;68279;48.964;14.502;2023-03-23T06:48:16;6.55;;;4.03;;
78889;SDS011;68279;48.964;14.502;2023-03-23T06:50:43;6.93;;;4.05;;
78889;SDS011;68279;48.964;14.502;2023-03-23T06:53:09;8.30;;;3.65;;
78889;SDS011;68279;48.964;14.502;2023-03-23T06:55:36;6.28;;;3.42;;
78889;SDS011;68279;48.964;14.502;2023-03-23T06:58:03;8.07;;;3.35;;
78889;SDS011;68279;48.964;14.502;2023-03-23T07:00:31;4.95;;;3.38;;
78889;SDS011;68279;48.964;14.502;2023-03-23T07:02:57;5.65;;;3.63;;
78889;SDS011;68279;48.964;14.502;2023-03-23T07:05:22;5.13;;;3.15;;
78889;SDS011;68279;48.964;14.502;2023-03-23T07:07:49;10.02;;;4.50;;
78889;SDS011;68279;48.964;14.502;2023-03-23T07:10:15;7.07;;;4.07;;
78889;SDS011;68279;48.964;14.502;2023-03-23T07:12:41;6.43;;;3.88;;
78889;SDS011;68279;48.964;14.502;2023-03-23T07:15:07;5.50;;;3.00;;
78889;SDS011;68279;48.964;14.502;2023-03-23T07:17:36;5.30;;;3.38;;
78889;SDS011;68279;48.964;14.502;2023-03-23T07:20:05;6.18;;;2.97;;
78889;SDS011;68279;48.964;14.502;2023-03-23T07:22:31;6.70;;;3.75;;
78889;SDS011;68279;48.964;14.502;2023-03-23T07:24:58;5.88;;;3.75;;
78889;SDS011;68279;48.964;14.502;2023-03-23T07:27:23;5.03;;;2.88;;
78889;SDS011;68279;48.964;14.502;2023-03-23T07:29:49;8.30;;;3.92;;
78889;SDS011;68279;48.964;14.502;2023-03-23T07:32:15;6.80;;;4.20;;
78889;SDS011;68279;48.964;14.502;2023-03-23T07:34:41;5.85;;;4.05;;
78889;SDS011;68279;48.964;14.502;2023-03-23T07:37:08;6.25;;;3.38;;
78889;SDS011;68279;48.964;14.502;2023-03-23T07:39:34;5.15;;;3.50;;
78889;SDS011;68279;48.964;14.502;2023-03-23T07:42:00;5.65;;;3.72;;
78889;SDS011;68279;48.964;14.502;2023-03-23T07:44:26;5.13;;;3.28;;
78889;SDS011;68279;48.964;14.502;2023-03-23T07:46:52;6.70;;;4.03;;
78889;SDS011;68279;48.964;14.502;2023-03-23T07:49:17;6.07;;;3.75;;
78889;SDS011;68279;48.964;14.502;2023-03-23T07:51:44;6.63;;;3.92;;
78889;SDS011;68279;48.964;14.502;2023-03-23T07:54:10;5.20;;;3.88;;
78889;SDS011;68279;48.964;14.502;2023-03-23T07:56:37;6.85;;;3.33;;
78889;SDS011;68279;48.964;14.502;2023-03-23T07:59:05;6.72;;;4.57;;
78889;SDS011;68279;48.964;14.502;2023-03-23T08:01:31;6.10;;;3.22;;
78889;SDS011;68279;48.964;14.502;2023-03-23T08:03:57;6.50;;;3.95;;
78889;SDS011;68279;48.964;14.502;2023-03-23T08:06:24;5.05;;;3.42;;
78889;SDS011;68279;48.964;14.502;2023-03-23T08:08:50;7.95;;;3.67;;
78889;SDS011;68279;48.964;14.502;2023-03-23T08:11:16;7.95;;;4.10;;
78889;SDS011;68279;48.964;14.502;2023-03-23T08:13:44;5.30;;;3.50;;
78889;SDS011;68279;48.964;14.502;2023-03-23T08:16:10;6.35;;;3.50;;
78889;SDS011;68279;48.964;14.502;2023-03-23T08:18:36;5.57;;;3.65;;
78889;SDS011;68279;48.964;14.502;2023-03-23T08:21:04;6.18;;;3.17;;
78889;SDS011;68279;48.964;14.502;2023-03-23T08:23:32;5.82;;;2.90;;
78889;SDS011;68279;48.964;14.502;2023-03-23T08:25:58;4.28;;;2.17;;
78889;SDS011;68279;48.964;14.502;2023-03-23T08:28:24;3.88;;;2.67;;
78889;SDS011;68279;48.964;14.502;2023-03-23T08:30:50;7.15;;;3.25;;
78889;SDS011;68279;48.964;14.502;2023-03-23T08:33:16;5.65;;;3.13;;
78889;SDS011;68279;48.964;14.502;2023-03-23T08:35:42;4.82;;;2.83;;
78889;SDS011;68279;48.964;14.502;2023-03-23T08:38:09;6.97;;;3.50;;
78889;SDS011;68279;48.964;14.502;2023-03-23T08:40:36;6.35;;;2.88;;
78889;SDS011;68279;48.964;14.502;2023-03-23T08:43:04;4.40;;;2.63;;
78889;SDS011;68279;48.964;14.502;2023-03-23T08:45:30;2.92;;;1.95;;
78889;SDS011;68279;48.964;14.502;2023-03-23T08:47:56;4.13;;;2.47;;
78889;SDS011;68279;48.964;14.502;2023-03-23T08:50:23;4.30;;;2.53;;
78889;SDS011;68279;48.964;14.502;2023-03-23T08:52:51;5.03;;;3.20;;
78889;SDS011;68279;48.964;14.502;2023-03-23T08:55:18;4.72;;;2.38;;
78889;SDS011;68279;48.964;14.502;2023-03-23T08:57:44;5.03;;;3.00;;
78889;SDS011;68279;48.964;14.502;2023-03-23T09:00:12;4.47;;;2.97;;
78889;SDS011;68279;48.964;14.502;2023-03-23T09:02:45;4.13;;;2.83;;
78889;SDS011;68279;48.964;14.502;2023-03-23T09:05:13;5.07;;;3.15;;
78889;SDS011;68279;48.964;14.502;2023-03-23T09:07:44;5.18;;;2.63;;
78889;SDS011;68279;48.964;14.502;2023-03-23T09:10:11;3.28;;;2.55;;
78889;SDS011;68279;48.964;14.502;2023-03-23T09:12:38;5.85;;;3.10;;
78889;SDS011;68279;48.964;14.502;2023-03-23T09:15:05;4.97;;;2.45;;
78889;SDS011;68279;48.964;14.502;2023-03-23T09:17:34;4.72;;;2.90;;
78889;SDS011;68279;48.964;14.502;2023-03-23T09:20:01;4.45;;;2.45;;
78889;SDS011;68279;48.964;14.502;2023-03-23T09:22:31;3.50;;;2.15;;
78889;SDS011;68279;48.964;14.502;2023-03-23T09:24:57;4.53;;;2.38;;
78889;SDS011;68279;48.964;14.502;2023-03-23T09:27:22;5.25;;;2.88;;
78889;SDS011;68279;48.964;14.502;2023-03-23T09:29:48;5.57;;;2.63;;
78889;SDS011;68279;48.964;14.502;2023-03-23T09:32:14;3.22;;;2.15;;
78889;SDS011;68279;48.964;14.502;2023-03-23T09:34:40;5.88;;;3.08;;
78889;SDS011;68279;48.964;14.502;2023-03-23T09:37:06;5.82;;;2.88;;
78889;SDS011;68279;48.964;14.502;2023-03-23T09:39:32;4.75;;;2.75;;
78889;SDS011;68279;48.964;14.502;2023-03-23T09:47:18;5.97;;;2.78;;
78889;SDS011;68279;48.964;14.502;2023-03-23T09:49:59;5.13;;;2.75;;
78889;SDS011;68279;48.964;14.502;2023-03-23T09:57:33;6.55;;;3.28;;
78889;SDS011;68279;48.964;14.502;2023-03-23T10:03:06;4.68;;;2.88;;
78889;SDS011;68279;48.964;14.502;2023-03-23T10:05:50;4.53;;;2.70;;
78889;SDS011;68279;48.964;14.502;2023-03-23T10:08:30;3.88;;;2.45;;
78889;SDS011;68279;48.964;14.502;2023-03-23T10:15:52;4.35;;;2.47;;
78889;SDS011;68279;48.964;14.502;2023-03-23T10:20:57;3.83;;;2.55;;
78889;SDS011;68279;48.964;14.502;2023-03-23T10:23:37;3.97;;;2.60;;
78889;SDS011;68279;48.964;14.502;2023-03-23T10:26:19;4.13;;;3.10;;
78889;SDS011;68279;48.964;14.502;2023-03-23T10:28:57;3.65;;;2.13;;
78889;SDS011;68279;48.964;14.502;2023-03-23T10:31:47;5.60;;;3.15;;
78889;SDS011;68279;48.964;14.502;2023-03-23T10:34:32;4.63;;;2.55;;
78889;SDS011;68279;48.964;14.502;2023-03-23T10:39:51;4.07;;;2.60;;
78889;SDS011;68279;48.964;14.502;2023-03-23T10:42:26;3.83;;;2.70;;
78889;SDS011;68279;48.964;14.502;2023-03-23T10:44:59;5.93;;;2.50;;
78889;SDS011;68279;48.964;14.502;2023-03-23T10:47:37;3.92;;;2.20;;
78889;SDS011;68279;48.964;14.502;2023-03-23T10:50:06;4.07;;;2.60;;
78889;SDS011;68279;48.964;14.502;2023-03-23T10:52:41;4.68;;;2.58;;
78889;SDS011;68279;48.964;14.502;2023-03-23T10:55:17;4.68;;;2.17;;
78889;SDS011;68279;48.964;14.502;2023-03-23T10:57:46;5.20;;;2.13;;
78889;SDS011;68279;48.964;14.502;2023-03-23T11:00:25;4.03;;;2.78;;
78889;SDS011;68279;48.964;14.502;2023-03-23T11:05:34;3.55;;;2.30;;
78889;SDS011;68279;48.964;14.502;2023-03-23T11:08:12;4.78;;;2.53;;
78889;SDS011;68279;48.964;14.502;2023-03-23T11:10:41;4.50;;;2.45;;
78889;SDS011;68279;48.964;14.502;2023-03-23T11:13:19;4.90;;;1.92;;
78889;SDS011;68279;48.964;14.502;2023-03-23T11:15:46;3.90;;;2.05;;
78889;SDS011;68279;48.964;14.502;2023-03-23T11:18:22;2.88;;;2.17;;
78889;SDS011;68279;48.964;14.502;2023-03-23T11:20:55;3.70;;;2.25;;
78889;SDS011;68279;48.964;14.502;2023-03-23T11:23:33;3.88;;;1.77;;
78889;SDS011;68279;48.964;14.502;2023-03-23T11:31:44;2.88;;;2.08;;
78889;SDS011;68279;48.964;14.502;2023-03-23T11:34:19;3.45;;;2.35;;
78889;SDS011;68279;48.964;14.502;2023-03-23T11:37:01;3.90;;;2.60;;
78889;SDS011;68279;48.964;14.502;2023-03-23T11:39:31;2.80;;;2.15;;
78889;SDS011;68279;48.964;14.502;2023-03-23T11:42:12;3.10;;;2.42;;
78889;SDS011;68279;48.964;14.502;2023-03-23T11:44:42;3.45;;;2.85;;
78889;SDS011;68279;48.964;14.502;2023-03-23T11:50:24;5.40;;;2.70;;
78889;SDS011;68279;48.964;14.502;2023-03-23T11:52:58;2.97;;;2.63;;
78889;SDS011;68279;48.964;14.502;2023-03-23T11:55:32;3.50;;;2.28;;
78889;SDS011;68279;48.964;14.502;2023-03-23T11:58:12;4.03;;;2.08;;
78889;SDS011;68279;48.964;14.502;2023-03-23T12:00:41;2.42;;;1.85;;
78889;SDS011;68279;48.964;14.502;2023-03-23T12:03:17;2.67;;;1.42;;
78889;SDS011;68279;48.964;14.502;2023-03-23T12:08:31;2.95;;;1.38;;
78889;SDS011;68279;48.964;14.502;2023-03-23T12:19:33;2.03;;;1.25;;
78889;SDS011;68279;48.964;14.502;2023-03-23T12:36:13;1.58;;;1.45;;
78889;SDS011;68279;48.964;14.502;2023-03-23T12:44:21;2.92;;;1.23;;
78889;SDS011;68279;48.964;14.502;2023-03-23T12:52:43;1.70;;;1.45;;
78889;SDS011;68279;48.964;14.502;2023-03-23T12:58:22;2.17;;;1.45;;
78889;SDS011;68279;48.964;14.502;2023-03-23T13:03:27;2.38;;;1.75;;
78889;SDS011;68279;48.964;14.502;2023-03-23T13:06:08;2.00;;;1.38;;
78889;SDS011;68279;48.964;14.502;2023-03-23T13:08:39;2.50;;;1.63;;
78889;SDS011;68279;48.964;14.502;2023-03-23T13:11:23;2.00;;;1.50;;
78889;SDS011;68279;48.964;14.502;2023-03-23T13:13:55;2.10;;;1.40;;
78889;SDS011;68279;48.964;14.502;2023-03-23T13:22:06;2.28;;;1.23;;
78889;SDS011;68279;48.964;14.502;2023-03-23T13:24:46;2.10;;;1.38;;
78889;SDS011;68279;48.964;14.502;2023-03-23T13:27:23;2.33;;;1.35;;
78889;SDS011;68279;48.964;14.502;2023-03-23T13:29:53;2.00;;;1.25;;
78889;SDS011;68279;48.964;14.502;2023-03-23T13:32:29;3.17;;;1.63;;
78889;SDS011;68279;48.964;14.502;2023-03-23T13:35:04;2.25;;;1.80;;
78889;SDS011;68279;48.964;14.502;2023-03-23T13:37:45;3.25;;;1.77;;
78889;SDS011;68279;48.964;14.502;2023-03-23T13:40:21;3.75;;;1.48;;
78889;SDS011;68279;48.964;14.502;2023-03-23T13:42:55;2.97;;;1.40;;
78889;SDS011;68279;48.964;14.502;2023-03-23T13:45:24;2.47;;;1.52;;
78889;SDS011;68279;48.964;14.502;2023-03-23T13:51:24;2.70;;;1.52;;
78889;SDS011;68279;48.964;14.502;2023-03-23T13:53:48;1.55;;;1.20;;
78889;SDS011;68279;48.964;14.502;2023-03-23T13:58:48;2.20;;;1.75;;
78889;SDS011;68279;48.964;14.502;2023-03-23T14:01:30;1.95;;;1.30;;
78889;SDS011;68279;48.964;14.502;2023-03-23T14:04:00;2.20;;;1.33;;
78889;SDS011;68279;48.964;14.502;2023-03-23T14:06:34;1.63;;;1.33;;
78889;SDS011;68279;48.964;14.502;2023-03-23T14:09:09;2.05;;;1.15;;
78889;SDS011;68279;48.964;14.502;2023-03-23T14:12:13;2.28;;;1.70;;
78889;SDS011;68279;48.964;14.502;2023-03-23T14:14:40;3.53;;;1.70;;
78889;SDS011;68279;48.964;14.502;2023-03-23T14:17:18;1.88;;;1.25;;
78889;SDS011;68279;48.964;14.502;2023-03-23T14:19:50;1.85;;;1.38;;
78889;SDS011;68279;48.964;14.502;2023-03-23T14:22:41;2.42;;;1.20;;
78889;SDS011;68279;48.964;14.502;2023-03-23T14:25:16;2.25;;;1.58;;
78889;SDS011;68279;48.964;14.502;2023-03-23T14:27:46;2.40;;;1.40;;
78889;SDS011;68279;48.964;14.502;2023-03-23T14:30:19;2.67;;;1.45;;
78889;SDS011;68279;48.964;14.502;2023-03-23T14:32:47;2.10;;;1.23;;
78889;SDS011;68279;48.964;14.502;2023-03-23T14:35:18;2.15;;;1.30;;
78889;SDS011;68279;48.964;14.502;2023-03-23T14:37:45;2.78;;;1.95;;
78889;SDS011;68279;48.964;14.502;2023-03-23T14:40:13;2.47;;;1.27;;
78889;SDS011;68279;48.964;14.502;2023-03-23T14:42:41;2.95;;;1.33;;
78889;SDS011;68279;48.964;14.502;2023-03-23T14:45:10;2.20;;;1.30;;
78889;SDS011;68279;48.964;14.502;2023-03-23T14:47:49;3.22;;;1.35;;
78889;SDS011;68279;48.964;14.502;2023-03-23T14:50:22;3.40;;;1.38;;
78889;SDS011;68279;48.964;14.502;2023-03-23T14:53:29;2.30;;;1.42;;
78889;SDS011;68279;48.964;14.502;2023-03-23T14:56:00;2.65;;;1.67;;
78889;SDS011;68279;48.964;14.502;2023-03-23T14:58:28;3.03;;;1.50;;
78889;SDS011;68279;48.964;14.502;2023-03-23T15:03:41;3.45;;;1.67;;
78889;SDS011;68279;48.964;14.502;2023-03-23T15:06:13;2.67;;;1.38;;
78889;SDS011;68279;48.964;14.502;2023-03-23T15:08:42;3.50;;;1.55;;
78889;SDS011;68279;48.964;14.502;2023-03-23T15:13:43;2.38;;;1.15;;
78889;SDS011;68279;48.964;14.502;2023-03-23T15:16:29;2.95;;;1.55;;
78889;SDS011;68279;48.964;14.502;2023-03-23T15:19:06;2.10;;;1.45;;
78889;SDS011;68279;48.964;14.502;2023-03-23T15:21:49;2.30;;;1.33;;
78889;SDS011;68279;48.964;14.502;2023-03-23T15:24:41;2.42;;;1.30;;
78889;SDS011;68279;48.964;14.502;2023-03-23T15:29:34;2.28;;;1.40;;
78889;SDS011;68279;48.964;14.502;2023-03-23T15:32:11;2.85;;;1.55;;
78889;SDS011;68279;48.964;14.502;2023-03-23T15:34:38;3.63;;;1.50;;
78889;SDS011;68279;48.964;14.502;2023-03-23T15:37:18;2.33;;;1.48;;
78889;SDS011;68279;48.964;14.502;2023-03-23T15:39:47;2.17;;;1.48;;
78889;SDS011;68279;48.964;14.502;2023-03-23T15:45:26;2.65;;;1.48;;
78889;SDS011;68279;48.964;14.502;2023-03-23T15:47:51;2.65;;;1.75;;
78889;SDS011;68279;48.964;14.502;2023-03-23T15:52:57;3.78;;;1.85;;
78889;SDS011;68279;48.964;14.502;2023-03-23T15:55:35;4.25;;;1.45;;
78889;SDS011;68279;48.964;14.502;2023-03-23T15:58:09;3.00;;;1.48;;
78889;SDS011;68279;48.964;14.502;2023-03-23T16:00:38;2.78;;;1.40;;
78889;SDS011;68279;48.964;14.502;2023-03-23T16:03:05;3.22;;;1.52;;
78889;SDS011;68279;48.964;14.502;2023-03-23T16:05:33;3.30;;;1.92;;
78889;SDS011;68279;48.964;14.502;2023-03-23T16:07:59;3.55;;;1.90;;
78889;SDS011;68279;48.964;14.502;2023-03-23T16:10:26;3.67;;;2.08;;
78889;SDS011;68279;48.964;14.502;2023-03-23T16:12:56;3.53;;;1.83;;
78889;SDS011;68279;48.964;14.502;2023-03-23T16:15:21;2.53;;;1.50;;
78889;SDS011;68279;48.964;14.502;2023-03-23T16:17:47;2.72;;;1.60;;
78889;SDS011;68279;48.964;14.502;2023-03-23T16:20:14;3.03;;;1.90;;
78889;SDS011;68279;48.964;14.502;2023-03-23T16:22:43;2.75;;;1.48;;
78889;SDS011;68279;48.964;14.502;2023-03-23T16:25:09;3.45;;;1.88;;
78889;SDS011;68279;48.964;14.502;2023-03-23T16:27:36;4.10;;;1.65;;
78889;SDS011;68279;48.964;14.502;2023-03-23T16:30:36;3.35;;;2.13;;
78889;SDS011;68279;48.964;14.502;2023-03-23T16:32:58;2.50;;;1.58;;
78889;SDS011;68279;48.964;14.502;2023-03-23T16:35:24;2.58;;;1.67;;
78889;SDS011;68279;48.964;14.502;2023-03-23T16:37:51;2.50;;;1.52;;
78889;SDS011;68279;48.964;14.502;2023-03-23T16:40:18;3.17;;;2.10;;
78889;SDS011;68279;48.964;14.502;2023-03-23T16:42:45;3.45;;;1.88;;
78889;SDS011;68279;48.964;14.502;2023-03-23T16:45:12;2.45;;;1.63;;
78889;SDS011;68279;48.964;14.502;2023-03-23T16:47:39;4.28;;;1.98;;
78889;SDS011;68279;48.964;14.502;2023-03-23T16:50:06;4.38;;;1.85;;
78889;SDS011;68279;48.964;14.502;2023-03-23T16:52:37;3.00;;;2.03;;
78889;SDS011;68279;48.964;14.502;2023-03-23T16:55:05;3.08;;;2.05;;
78889;SDS011;68279;48.964;14.502;2023-03-23T16:57:32;3.70;;;2.15;;